METAR Data
IDs: Format: Raw Decoded Include TAF

Data at: 0159 UTC 01 Mar 2021

KPVE 010155Z AUTO 34019G26KT 3/4SM BR OVC004 16/15 A2987 RMK A01